createdAt,value
2018-09-11T05:11:45.920Z,15.00
2018-09-11T05:14:14.160Z,15.00
2018-09-11T05:16:42.506Z,15.10
2018-09-11T05:19:10.789Z,15.10
2018-09-11T05:21:39.023Z,15.20
2018-09-11T05:24:07.323Z,15.20
2018-09-11T05:26:35.542Z,15.20
2018-09-11T05:29:03.777Z,15.30
2018-09-11T05:31:32.019Z,15.40
2018-09-11T05:34:00.256Z,15.40
2018-09-11T05:36:28.485Z,15.50
2018-09-11T05:39:19.660Z,15.60
2018-09-11T05:41:47.869Z,15.70
2018-09-11T05:44:16.111Z,15.80
2018-09-11T05:46:44.373Z,15.80
2018-09-11T05:49:12.600Z,15.90
2018-09-11T05:51:40.840Z,16.00
2018-09-11T05:54:09.239Z,16.10
2018-09-11T05:56:37.474Z,16.10
2018-09-11T05:59:05.728Z,16.20
2018-09-11T06:01:33.947Z,16.30
2018-09-11T06:04:02.179Z,16.30
2018-09-11T06:06:30.390Z,16.40
2018-09-11T06:08:58.623Z,16.50
2018-09-11T06:11:26.828Z,16.50
2018-09-11T06:13:55.060Z,16.60
2018-09-11T06:16:23.393Z,16.60
2018-09-11T06:18:51.549Z,16.60
2018-09-11T06:21:19.812Z,16.70
2018-09-11T06:23:48.020Z,16.70
2018-09-11T06:26:16.252Z,16.60
2018-09-11T06:28:44.467Z,16.60
2018-09-11T06:31:12.699Z,16.70
2018-09-11T06:33:40.912Z,16.60
2018-09-11T06:36:09.136Z,16.70
2018-09-11T06:38:37.461Z,16.70
2018-09-11T06:41:05.754Z,16.80
2018-09-11T06:43:33.952Z,16.90
2018-09-11T06:46:02.215Z,16.90
2018-09-11T06:48:30.453Z,17.00
2018-09-11T06:50:58.685Z,17.10
2018-09-11T06:53:26.901Z,17.20
2018-09-11T06:55:55.153Z,17.40
2018-09-11T06:58:23.368Z,17.50
2018-09-11T07:00:51.601Z,17.60
2018-09-11T07:03:19.811Z,17.70
2018-09-11T07:05:48.040Z,17.70
2018-09-11T07:08:16.244Z,17.80
2018-09-11T07:10:44.472Z,17.90
2018-09-11T07:13:12.693Z,18.00
2018-09-11T07:15:40.920Z,18.00
2018-09-11T07:18:09.132Z,18.10
2018-09-11T07:20:37.367Z,18.10
2018-09-11T07:23:05.592Z,18.20
2018-09-11T07:25:33.820Z,18.10
2018-09-11T07:28:02.044Z,18.20
2018-09-11T07:30:30.396Z,18.30
2018-09-11T07:32:58.507Z,18.40
2018-09-11T07:35:26.727Z,18.40
2018-09-11T07:37:55.022Z,18.50
2018-09-11T07:40:23.201Z,18.60
2018-09-11T07:42:51.404Z,18.70
2018-09-11T07:45:19.652Z,18.80
2018-09-11T07:47:47.900Z,18.90
2018-09-11T07:50:16.133Z,19.10
2018-09-11T07:52:44.416Z,19.10
2018-09-11T07:55:12.628Z,19.20
2018-09-11T07:57:40.912Z,19.40
2018-09-11T08:00:09.117Z,19.50
2018-09-11T08:02:37.366Z,19.70
2018-09-11T08:05:05.655Z,19.70
2018-09-11T08:07:34.073Z,19.80
2018-09-11T08:10:02.305Z,19.80
2018-09-11T08:12:30.520Z,20.00
2018-09-11T08:14:58.747Z,20.20
2018-09-11T08:17:27.028Z,20.30
2018-09-11T08:19:55.301Z,20.50
2018-09-11T08:22:23.520Z,20.60
2018-09-11T08:24:51.727Z,20.60
2018-09-11T08:27:19.960Z,20.60
2018-09-11T08:29:48.174Z,20.60
2018-09-11T08:32:16.418Z,20.70
2018-09-11T08:34:44.677Z,20.80
2018-09-11T08:37:12.920Z,20.90
2018-09-11T08:39:41.132Z,20.80
2018-09-11T08:42:09.364Z,20.90
2018-09-11T08:44:37.572Z,21.00
2018-09-11T08:47:05.795Z,21.20
2018-09-11T08:49:34.012Z,21.20
2018-09-11T08:52:02.299Z,21.30
2018-09-11T08:54:30.484Z,21.60
2018-09-11T08:56:58.716Z,21.70
2018-09-11T08:59:26.924Z,22.00
2018-09-11T09:01:55.160Z,22.00
2018-09-11T09:04:23.359Z,22.10
2018-09-11T09:06:51.599Z,22.10
2018-09-11T09:09:19.831Z,22.40
2018-09-11T09:11:48.072Z,22.60
2018-09-11T09:14:16.285Z,22.40
2018-09-11T09:16:44.515Z,22.30
2018-09-11T09:19:12.724Z,22.30
2018-09-11T09:21:40.977Z,22.50
2018-09-11T09:24:09.196Z,22.80
2018-09-11T09:26:37.436Z,23.10
2018-09-11T09:29:05.660Z,23.20
2018-09-11T09:31:33.893Z,23.30
2018-09-11T09:34:02.095Z,23.10
2018-09-11T09:36:30.390Z,23.10
2018-09-11T09:38:58.571Z,23.20
2018-09-11T09:41:26.809Z,23.30
2018-09-11T09:43:55.106Z,23.30
2018-09-11T09:46:23.296Z,23.30
2018-09-11T09:48:51.512Z,23.40
2018-09-11T09:51:19.761Z,23.30
2018-09-11T09:53:47.969Z,23.30
2018-09-11T09:56:16.195Z,23.40
2018-09-11T09:58:44.407Z,23.50
2018-09-11T10:01:18.348Z,23.40
2018-09-11T10:03:46.574Z,23.40
2018-09-11T10:06:14.831Z,23.60
2018-09-11T10:08:43.053Z,23.70
2018-09-11T10:11:11.274Z,23.90
2018-09-11T10:13:39.504Z,24.00
2018-09-11T10:16:07.716Z,24.00
2018-09-11T10:18:35.948Z,24.10
2018-09-11T10:21:04.168Z,24.20
2018-09-11T10:23:32.420Z,24.30
2018-09-11T10:26:00.636Z,24.40
2018-09-11T10:28:28.873Z,24.40
2018-09-11T10:30:57.087Z,24.20
2018-09-11T10:33:25.319Z,24.20
2018-09-11T10:35:53.536Z,24.20
2018-09-11T10:38:21.781Z,24.10
2018-09-11T10:40:49.991Z,24.00
2018-09-11T10:43:18.235Z,23.90
2018-09-11T10:45:46.452Z,23.70
2018-09-11T10:48:14.684Z,23.70
2018-09-11T10:50:42.909Z,23.60
2018-09-11T10:53:11.152Z,23.70
2018-09-11T10:55:39.363Z,23.50
2018-09-11T10:58:07.600Z,23.50
2018-09-11T11:00:35.821Z,23.30
2018-09-11T11:03:04.055Z,23.50
2018-09-11T11:05:32.259Z,23.60
2018-09-11T11:08:00.504Z,23.90
2018-09-11T11:10:28.764Z,24.00
2018-09-11T11:12:56.996Z,24.10
2018-09-11T11:15:25.203Z,24.20
2018-09-11T11:17:53.433Z,24.00
2018-09-11T11:20:21.644Z,24.00
2018-09-11T11:22:49.887Z,24.20
2018-09-11T11:25:18.100Z,24.40
2018-09-11T11:27:46.328Z,24.30
2018-09-11T11:30:14.545Z,24.50
2018-09-11T11:32:42.775Z,24.60
2018-09-11T11:35:10.993Z,24.70
2018-09-11T11:37:39.215Z,24.80
2018-09-11T11:40:07.428Z,24.80
2018-09-11T11:42:35.667Z,24.90
2018-09-11T11:45:03.887Z,24.90
2018-09-11T11:47:32.112Z,25.00
2018-09-11T11:50:00.320Z,25.10
2018-09-11T11:52:28.537Z,25.10
2018-09-11T11:54:56.763Z,25.20
2018-09-11T11:57:25.021Z,25.40
2018-09-11T11:59:53.238Z,25.50
2018-09-11T12:02:21.451Z,25.50
2018-09-11T12:04:49.686Z,25.50
2018-09-11T12:07:17.909Z,25.50
2018-09-11T12:09:46.146Z,25.60
2018-09-11T12:12:14.382Z,25.70
2018-09-11T12:14:42.616Z,25.70
2018-09-11T12:17:10.821Z,25.50
2018-09-11T12:19:39.052Z,25.40
2018-09-11T12:22:07.286Z,25.50
2018-09-11T12:24:35.516Z,25.40
2018-09-11T12:27:03.732Z,25.50
2018-09-11T12:29:31.967Z,25.50
2018-09-11T12:32:00.180Z,25.50
2018-09-11T12:34:28.439Z,25.50
2018-09-11T12:36:56.652Z,25.50
2018-09-11T12:39:24.891Z,25.50
2018-09-11T12:41:53.104Z,25.40
2018-09-11T12:44:21.340Z,25.60
2018-09-11T12:46:49.703Z,25.70
2018-09-11T12:49:17.804Z,26.00
2018-09-11T12:51:46.021Z,26.00
2018-09-11T12:54:14.248Z,26.10
2018-09-11T12:56:42.465Z,26.10
2018-09-11T12:59:10.689Z,26.00
2018-09-11T13:01:38.904Z,25.90
2018-09-11T13:04:07.460Z,25.90
2018-09-11T13:06:35.660Z,25.70
2018-09-11T13:09:05.637Z,25.70
2018-09-11T13:11:33.816Z,25.70
2018-09-11T13:14:02.040Z,25.80
2018-09-11T13:16:30.244Z,25.90
2018-09-11T13:18:58.472Z,25.90
2018-09-11T13:21:26.709Z,25.80
2018-09-11T13:23:54.953Z,25.90
2018-09-11T13:26:23.156Z,26.10
2018-09-11T13:28:51.396Z,26.10
2018-09-11T13:31:19.617Z,26.20
2018-09-11T13:33:47.915Z,26.20
2018-09-11T13:36:16.076Z,26.10
2018-09-11T13:38:44.300Z,26.00
2018-09-11T13:41:12.514Z,26.00
2018-09-11T13:43:40.752Z,26.00
2018-09-11T13:46:08.968Z,26.10
2018-09-11T13:48:37.203Z,26.10
2018-09-11T13:51:05.419Z,26.20
2018-09-11T13:53:33.625Z,26.20
2018-09-11T13:56:01.906Z,26.20
2018-09-11T13:58:30.100Z,26.30
2018-09-11T14:00:58.332Z,26.30
2018-09-11T14:03:26.548Z,26.30
2018-09-11T14:05:54.775Z,26.20
2018-09-11T14:08:23.039Z,26.10
2018-09-11T14:10:51.240Z,26.00
2018-09-11T14:13:19.449Z,25.90
2018-09-11T14:15:47.727Z,26.00
2018-09-11T14:18:15.920Z,25.90
2018-09-11T14:20:44.147Z,25.90
2018-09-11T14:23:12.372Z,26.00
2018-09-11T14:25:40.599Z,26.10
2018-09-11T14:28:08.808Z,26.10
2018-09-11T14:30:37.034Z,26.10
2018-09-11T14:33:05.244Z,26.10
2018-09-11T14:35:33.469Z,26.10
2018-09-11T14:38:01.679Z,26.10
2018-09-11T14:40:29.912Z,26.10
2018-09-11T14:42:58.111Z,26.10
2018-09-11T14:45:26.436Z,26.20
2018-09-11T14:47:54.656Z,26.20
2018-09-11T14:50:22.888Z,26.30
2018-09-11T14:52:51.116Z,26.20
2018-09-11T14:55:19.356Z,26.20
2018-09-11T14:57:47.568Z,26.20
2018-09-11T15:00:15.853Z,26.10
2018-09-11T15:02:44.023Z,26.10
2018-09-11T15:05:12.240Z,26.00
2018-09-11T15:07:40.447Z,25.90
2018-09-11T15:10:08.701Z,25.90
2018-09-11T15:12:36.932Z,25.80
2018-09-11T15:15:05.183Z,25.80
2018-09-11T15:17:33.415Z,25.70
2018-09-11T15:20:01.664Z,25.70
2018-09-11T15:22:29.905Z,25.70
2018-09-11T15:24:58.143Z,25.60
2018-09-11T15:27:26.360Z,25.50
2018-09-11T15:29:54.655Z,25.50
2018-09-11T15:32:22.833Z,25.50
2018-09-11T15:34:51.079Z,25.50
2018-09-11T15:37:19.286Z,25.50
2018-09-11T15:39:47.525Z,25.40
2018-09-11T15:42:15.741Z,25.30
2018-09-11T15:44:43.996Z,25.30
2018-09-11T15:47:12.223Z,25.20
2018-09-11T15:49:40.439Z,25.10
2018-09-11T15:52:08.668Z,25.10
2018-09-11T15:54:36.875Z,25.10
2018-09-11T15:57:05.108Z,25.00
2018-09-11T15:59:33.320Z,25.00
2018-09-11T16:02:01.545Z,24.90
2018-09-11T16:04:29.760Z,24.80
2018-09-11T16:06:58.045Z,24.80
2018-09-11T16:09:26.226Z,24.70
2018-09-11T16:11:54.459Z,24.60
2018-09-11T16:14:22.676Z,24.60
2018-09-11T16:16:50.903Z,24.60
2018-09-11T16:19:19.927Z,24.60
2018-09-11T16:21:48.185Z,24.50
2018-09-11T16:24:16.391Z,24.50
2018-09-11T16:26:44.629Z,24.40
2018-09-11T16:29:12.845Z,24.30
2018-09-11T16:31:41.080Z,24.20
2018-09-11T16:34:09.302Z,24.10
2018-09-11T16:36:37.529Z,24.00
2018-09-11T16:39:08.180Z,24.00
2018-09-11T16:41:36.416Z,23.90
2018-09-11T16:44:04.623Z,23.80
2018-09-11T16:46:32.869Z,23.70
2018-09-11T16:49:01.104Z,23.60
2018-09-11T16:51:29.331Z,23.40
2018-09-11T16:53:57.544Z,23.30
2018-09-11T16:56:25.790Z,23.10
2018-09-11T16:58:54.005Z,23.00
2018-09-11T17:01:22.244Z,22.90
2018-09-11T17:03:50.453Z,22.80
2018-09-11T17:06:18.680Z,22.70
2018-09-11T17:08:46.946Z,22.50
2018-09-11T17:11:15.176Z,22.30
2018-09-11T17:13:43.384Z,22.20
2018-09-11T17:16:11.612Z,22.00
2018-09-11T17:18:39.856Z,21.90
2018-09-11T17:21:08.090Z,21.80
2018-09-11T17:23:36.320Z,21.70
2018-09-11T17:26:04.604Z,21.70
2018-09-11T17:28:32.813Z,21.70
2018-09-11T17:31:01.052Z,21.60
2018-09-11T17:33:29.300Z,21.50
2018-09-11T17:35:57.839Z,21.30
2018-09-11T17:38:26.061Z,21.10
2018-09-11T17:40:54.277Z,21.00
2018-09-11T17:43:22.768Z,20.90
2018-09-11T17:45:50.992Z,20.90
2018-09-11T17:48:19.219Z,20.80
2018-09-11T17:50:47.439Z,20.70
2018-09-11T17:53:15.668Z,20.50
2018-09-11T17:55:44.049Z,20.60
2018-09-11T17:58:12.292Z,20.70
2018-09-11T18:00:41.301Z,20.70
2018-09-11T18:03:09.537Z,20.70
2018-09-11T18:05:37.769Z,20.60
2018-09-11T18:08:06.244Z,20.50
2018-09-11T18:10:34.448Z,20.50
2018-09-11T18:13:02.676Z,20.40
2018-09-11T18:15:30.894Z,20.30
2018-09-11T18:17:59.164Z,20.30
2018-09-11T18:20:27.376Z,20.30
2018-09-11T18:22:55.653Z,20.20
2018-09-11T18:25:23.864Z,20.30
2018-09-11T18:27:52.096Z,20.30
2018-09-11T18:30:20.317Z,20.30
2018-09-11T18:32:48.547Z,20.40
2018-09-11T18:35:16.756Z,20.50
2018-09-11T18:37:44.986Z,20.70
2018-09-11T18:40:13.216Z,20.70
2018-09-11T18:42:41.464Z,20.70
2018-09-11T18:45:09.675Z,20.70
2018-09-11T18:47:37.908Z,20.80
2018-09-11T18:50:06.215Z,20.90
2018-09-11T18:52:34.448Z,21.00
2018-09-11T18:55:02.677Z,21.10
2018-09-11T18:57:30.943Z,21.10
2018-09-11T18:59:59.161Z,21.10
2018-09-11T19:02:27.397Z,21.20
2018-09-11T19:04:55.665Z,21.20
2018-09-11T19:07:23.869Z,21.20
2018-09-11T19:09:52.092Z,21.20
2018-09-11T19:12:20.327Z,21.20
2018-09-11T19:14:48.544Z,21.10
2018-09-11T19:17:16.773Z,21.20
2018-09-11T19:19:44.997Z,21.20
2018-09-11T19:22:13.250Z,21.10
2018-09-11T19:24:41.472Z,21.00
2018-09-11T19:27:09.693Z,20.90
2018-09-11T19:29:37.906Z,20.80
2018-09-11T19:32:06.160Z,20.80
2018-09-11T19:34:34.372Z,20.70
2018-09-11T19:37:02.589Z,20.70
2018-09-11T19:39:30.833Z,20.80
2018-09-11T19:41:59.040Z,20.70
2018-09-11T19:44:27.276Z,20.60
2018-09-11T19:46:55.479Z,20.60
2018-09-11T19:49:23.714Z,20.50
2018-09-11T19:51:51.941Z,20.40
2018-09-11T19:54:20.184Z,20.50
2018-09-11T19:56:48.403Z,20.40
2018-09-11T19:59:16.627Z,20.40
2018-09-11T20:01:44.844Z,20.20
